createdAt,value
2018-04-23T00:00:59.793Z,93523.52
2018-04-23T00:03:26.259Z,93517.56
2018-04-23T00:05:52.680Z,93512.88
2018-04-23T00:08:19.119Z,93517.17
2018-04-23T00:10:45.577Z,93521.70
2018-04-23T00:13:12.036Z,93526.22
2018-04-23T00:15:38.554Z,93526.90
2018-04-23T00:18:05.044Z,93517.88
2018-04-23T00:20:31.500Z,93519.61
2018-04-23T00:22:57.935Z,93519.16
2018-04-23T00:25:24.489Z,93517.42
2018-04-23T00:27:50.863Z,93520.52
2018-04-23T00:30:17.203Z,93522.34
2018-04-23T00:32:43.577Z,93522.89
2018-04-23T00:35:10.074Z,93521.91
2018-04-23T00:37:36.525Z,93524.08
2018-04-23T00:40:02.990Z,93516.08
2018-04-23T00:42:29.356Z,93510.34
2018-04-23T00:44:55.869Z,93517.48
2018-04-23T00:47:22.362Z,93510.54
2018-04-23T00:49:48.724Z,93512.25
2018-04-23T00:52:15.057Z,93520.61
2018-04-23T00:54:41.501Z,93519.48
2018-04-23T00:57:08.024Z,93525.08
2018-04-23T00:59:34.392Z,93522.70
2018-04-23T01:02:00.753Z,93517.74
2018-04-23T01:04:27.065Z,93521.30
2018-04-23T01:06:53.541Z,93516.55
2018-04-23T01:09:19.935Z,93514.73
2018-04-23T01:11:46.270Z,93524.03
2018-04-23T01:14:12.719Z,93522.06
2018-04-23T01:16:39.247Z,93522.79
2018-04-23T01:19:05.665Z,93519.61
2018-04-23T01:21:32.039Z,93519.00
2018-04-23T01:23:58.506Z,93515.11
2018-04-23T01:26:24.971Z,93513.81
2018-04-23T01:28:51.383Z,93514.14
2018-04-23T01:31:17.895Z,93506.72
2018-04-23T01:33:44.409Z,93503.97
2018-04-23T01:36:10.826Z,93502.99
2018-04-23T01:38:37.224Z,93506.73
2018-04-23T01:41:03.705Z,93509.61
2018-04-23T01:43:30.111Z,93504.98
2018-04-23T01:45:56.613Z,93509.08
2018-04-23T01:48:23.051Z,93506.47
2018-04-23T01:50:49.475Z,93506.29
2018-04-23T01:53:15.911Z,93508.66
2018-04-23T01:55:42.414Z,93508.41
2018-04-23T01:58:08.794Z,93516.18
2018-04-23T02:00:35.346Z,93517.83
2018-04-23T02:03:01.762Z,93524.47
2018-04-23T02:05:28.249Z,93525.55
2018-04-23T02:07:54.627Z,93524.31
2018-04-23T02:10:21.001Z,93528.88
2018-04-23T02:12:47.343Z,93530.24
2018-04-23T02:15:13.716Z,93529.52
2018-04-23T02:17:40.060Z,93527.19
2018-04-23T02:20:06.433Z,93524.28
2018-04-23T02:22:32.820Z,93517.94
2018-04-23T02:24:59.136Z,93515.95
2018-04-23T02:27:25.602Z,93513.70
2018-04-23T02:29:52.044Z,93513.17
2018-04-23T02:32:18.473Z,93512.21
2018-04-23T02:34:44.850Z,93515.08
2018-04-23T02:37:11.381Z,93512.44
2018-04-23T02:39:37.785Z,93509.83
2018-04-23T02:42:04.249Z,93518.08
2018-04-23T02:44:30.681Z,93511.27
2018-04-23T02:46:57.129Z,93513.63
2018-04-23T02:49:23.464Z,93517.80
2018-04-23T02:51:49.896Z,93520.13
2018-04-23T02:54:16.234Z,93522.91
2018-04-23T02:56:42.723Z,93523.10
2018-04-23T02:59:09.086Z,93521.28
2018-04-23T03:01:35.743Z,93521.20
2018-04-23T03:04:02.195Z,93522.02
2018-04-23T03:06:28.598Z,93525.69
2018-04-23T03:08:55.007Z,93526.79
2018-04-23T03:11:21.316Z,93524.67
2018-04-23T03:13:47.649Z,93527.53
2018-04-23T03:16:14.136Z,93530.17
2018-04-23T03:18:40.572Z,93527.44
2018-04-23T03:21:07.030Z,93545.69
2018-04-23T03:23:33.499Z,93543.20
2018-04-23T03:25:59.943Z,93548.97
2018-04-23T03:28:26.324Z,93547.78
2018-04-23T03:30:52.734Z,93547.84
2018-04-23T03:33:19.086Z,93550.83
2018-04-23T03:35:46.562Z,93550.01
2018-04-23T03:38:13.032Z,93552.11
2018-04-23T03:40:39.400Z,93553.14
2018-04-23T03:43:05.736Z,93553.50
2018-04-23T03:45:32.227Z,93553.23
2018-04-23T03:47:58.602Z,93553.09
2018-04-23T03:50:24.964Z,93554.69
2018-04-23T03:52:51.407Z,93550.95
2018-04-23T03:55:17.879Z,93557.61
2018-04-23T03:57:44.329Z,93560.20
2018-04-23T04:00:10.769Z,93556.53
2018-04-23T04:02:37.096Z,93550.67
2018-04-23T04:05:03.571Z,93548.55
2018-04-23T04:07:30.117Z,93539.09
2018-04-23T04:09:56.546Z,93549.14
2018-04-23T04:12:35.013Z,93553.09
2018-04-23T04:15:13.648Z,93547.64
2018-04-23T04:20:54.305Z,93550.98
2018-04-23T04:23:20.997Z,93552.30
2018-04-23T04:25:47.402Z,93549.84
2018-04-23T04:28:13.786Z,93548.42
2018-04-23T04:30:40.173Z,93548.73
2018-04-23T04:33:06.504Z,93553.03
2018-04-23T04:35:33.068Z,93552.57
2018-04-23T04:37:59.625Z,93554.67
2018-04-23T04:40:26.090Z,93556.95
2018-04-23T04:42:52.514Z,93563.48
2018-04-23T04:45:19.065Z,93558.30
2018-04-23T04:47:45.647Z,93564.43
2018-04-23T04:50:12.108Z,93556.94
2018-04-23T04:52:38.497Z,93558.23
2018-04-23T04:55:04.877Z,93566.91
2018-04-23T04:57:31.311Z,93564.30
2018-04-23T04:59:57.743Z,93563.98
2018-04-23T05:02:24.075Z,93571.84
2018-04-23T05:04:50.487Z,93572.11
2018-04-23T05:07:16.994Z,93575.64
2018-04-23T05:09:43.346Z,93570.51
2018-04-23T05:12:09.817Z,93574.63
2018-04-23T05:14:36.197Z,93583.61
2018-04-23T05:17:03.074Z,93576.70
2018-04-23T05:19:29.503Z,93576.42
2018-04-23T05:21:55.869Z,93582.78
2018-04-23T05:24:22.342Z,93582.59
2018-04-23T05:26:48.785Z,93577.47
2018-04-23T05:29:15.262Z,93581.37
2018-04-23T05:31:41.714Z,93574.98
2018-04-23T05:34:08.198Z,93573.98
2018-04-23T05:36:34.769Z,93570.13
2018-04-23T05:39:01.313Z,93572.91
2018-04-23T05:41:27.842Z,93576.09
2018-04-23T05:43:54.283Z,93574.55
2018-04-23T05:46:20.941Z,93575.84
2018-04-23T05:48:48.416Z,93567.92
2018-04-23T05:51:15.668Z,93580.92
2018-04-23T05:53:42.264Z,93578.82
2018-04-23T05:56:08.796Z,93588.02
2018-04-23T05:58:35.204Z,93582.91
2018-04-23T06:01:01.734Z,93574.48
2018-04-23T06:03:28.270Z,93575.83
2018-04-23T06:05:54.798Z,93576.13
2018-04-23T06:08:22.357Z,93584.16
2018-04-23T06:10:48.781Z,93585.33
2018-04-23T06:13:15.156Z,93576.40
2018-04-23T06:15:41.740Z,93578.11
2018-04-23T06:18:08.236Z,93575.58
2018-04-23T06:20:34.674Z,93567.65
2018-04-23T06:23:01.192Z,93574.39
2018-04-23T06:25:27.658Z,93574.48
2018-04-23T06:27:55.205Z,93578.92
2018-04-23T06:30:21.802Z,93571.88
2018-04-23T06:32:48.205Z,93571.65
2018-04-23T06:35:14.625Z,93569.22
2018-04-23T06:37:41.139Z,93573.42
2018-04-23T06:40:07.652Z,93572.77
2018-04-23T06:42:34.142Z,93578.55
2018-04-23T06:45:00.734Z,93578.83
2018-04-23T06:47:28.204Z,93580.14
2018-04-23T06:49:54.621Z,93581.11
2018-04-23T06:52:21.113Z,93582.17
2018-04-23T06:54:47.719Z,93576.17
2018-04-23T06:57:14.115Z,93586.09
2018-04-23T06:59:40.582Z,93574.47
2018-04-23T07:02:07.143Z,93585.69
2018-04-23T07:04:33.787Z,93584.64
2018-04-23T07:07:00.522Z,93580.25
2018-04-23T07:09:27.016Z,93580.95
2018-04-23T07:11:53.463Z,93579.98
2018-04-23T07:14:19.905Z,93577.24
2018-04-23T07:16:46.308Z,93580.47
2018-04-23T07:19:12.672Z,93574.16
2018-04-23T07:21:39.061Z,93585.02
2018-04-23T07:24:05.468Z,93577.75
2018-04-23T07:26:31.968Z,93584.80
2018-04-23T07:28:58.352Z,93575.81
2018-04-23T07:31:24.788Z,93581.53
2018-04-23T07:33:51.275Z,93584.69
2018-04-23T07:36:17.977Z,93581.17
2018-04-23T07:38:44.413Z,93582.27
2018-04-23T07:41:10.791Z,93580.12
2018-04-23T07:43:37.233Z,93588.48
2018-04-23T07:46:04.634Z,93586.98
2018-04-23T07:48:31.010Z,93582.53
2018-04-23T07:50:57.432Z,93582.52
2018-04-23T07:53:23.856Z,93577.20
2018-04-23T07:55:50.296Z,93579.64
2018-04-23T07:58:16.767Z,93582.51
2018-04-23T08:00:43.184Z,93579.45
2018-04-23T08:03:09.573Z,93583.05
2018-04-23T08:05:36.097Z,93584.34
2018-04-23T08:08:02.664Z,93585.16
2018-04-23T08:10:29.013Z,93583.95
2018-04-23T08:12:55.470Z,93582.64
2018-04-23T08:15:21.843Z,93579.98
2018-04-23T08:17:49.354Z,93574.83
2018-04-23T08:20:15.758Z,93570.93
2018-04-23T08:22:42.136Z,93571.53
2018-04-23T08:25:08.499Z,93571.08
2018-04-23T08:27:34.949Z,93577.41
2018-04-23T08:30:01.320Z,93576.59
2018-04-23T08:32:27.736Z,93575.86
2018-04-23T08:34:54.158Z,93573.05
2018-04-23T08:37:20.607Z,93574.23
2018-04-23T08:39:47.081Z,93566.84
2018-04-23T08:42:13.546Z,93572.05
2018-04-23T08:44:39.980Z,93577.27
2018-04-23T08:47:07.407Z,93570.35
2018-04-23T08:49:33.880Z,93564.03
2018-04-23T08:52:00.746Z,93567.97
2018-04-23T08:54:27.331Z,93566.12
2018-04-23T08:56:58.737Z,93560.75
2018-04-23T08:59:25.160Z,93563.72
2018-04-23T09:01:51.574Z,93560.05
2018-04-23T09:04:17.969Z,93556.81
2018-04-23T09:06:44.454Z,93555.67
2018-04-23T09:09:11.205Z,93555.86
2018-04-23T09:11:37.774Z,93552.46
2018-04-23T09:14:04.296Z,93554.02
2018-04-23T09:16:31.700Z,93551.25
2018-04-23T09:18:58.154Z,93548.06
2018-04-23T09:21:24.598Z,93544.90
2018-04-23T09:23:50.943Z,93545.13
2018-04-23T09:26:18.507Z,93545.27
2018-04-23T09:28:44.902Z,93542.94
2018-04-23T09:31:11.329Z,93531.66
2018-04-23T09:33:37.782Z,93535.09
2018-04-23T09:36:04.209Z,93537.31
2018-04-23T09:38:30.583Z,93534.59
2018-04-23T09:40:57.070Z,93538.83
2018-04-23T09:43:23.574Z,93531.95
2018-04-23T09:45:49.935Z,93530.25
2018-04-23T09:48:16.360Z,93525.41
2018-04-23T09:50:42.677Z,93524.17
2018-04-23T09:53:09.017Z,93528.29
2018-04-23T09:55:35.424Z,93518.80
2018-04-23T09:58:02.885Z,93521.08
2018-04-23T10:00:31.082Z,93514.25
2018-04-23T10:02:57.627Z,93519.33
2018-04-23T10:05:23.998Z,93504.64
2018-04-23T10:07:50.531Z,93504.28
2018-04-23T10:10:16.957Z,93503.45
2018-04-23T10:12:43.392Z,93504.09
2018-04-23T10:15:09.752Z,93495.70
2018-04-23T10:17:53.263Z,93492.40
2018-04-23T10:20:19.691Z,93489.52
2018-04-23T10:22:46.102Z,93496.33
2018-04-23T10:25:12.580Z,93484.05
2018-04-23T10:27:39.112Z,93489.31
2018-04-23T10:30:05.683Z,93486.38
2018-04-23T10:32:32.318Z,93486.19
2018-04-23T10:34:58.705Z,93480.98
2018-04-23T10:37:25.140Z,93478.55
2018-04-23T10:39:51.497Z,93475.92
2018-04-23T10:42:17.865Z,93474.28
2018-04-23T10:44:44.190Z,93474.77
2018-04-23T10:47:10.742Z,93472.56
2018-04-23T10:49:37.139Z,93470.66
2018-04-23T10:52:03.525Z,93470.75
2018-04-23T10:54:30.762Z,93463.83
2018-04-23T10:57:00.387Z,93467.88
2018-04-23T10:59:26.853Z,93464.00
2018-04-23T11:01:53.396Z,93457.88
2018-04-23T11:04:19.832Z,93461.95
2018-04-23T11:06:46.642Z,93451.61
2018-04-23T11:09:13.165Z,93454.66
2018-04-23T11:11:40.059Z,93451.04
2018-04-23T11:14:06.439Z,93456.39
2018-04-23T11:16:33.038Z,93450.84
2018-04-23T11:18:59.521Z,93450.36
2018-04-23T11:21:25.901Z,93445.69
2018-04-23T11:23:52.334Z,93442.14
2018-04-23T11:26:18.713Z,93448.61
2018-04-23T11:28:45.131Z,93444.52
2018-04-23T11:31:11.613Z,93444.72
2018-04-23T11:33:37.962Z,93444.38
2018-04-23T11:36:04.434Z,93443.84
2018-04-23T11:38:30.990Z,93436.19
2018-04-23T11:40:57.419Z,93442.56
2018-04-23T11:43:23.840Z,93435.77
2018-04-23T11:45:50.450Z,93431.59
2018-04-23T11:48:16.931Z,93426.81
2018-04-23T11:50:43.357Z,93424.80
2018-04-23T11:53:09.918Z,93422.70
2018-04-23T11:55:36.345Z,93419.31
2018-04-23T11:58:03.775Z,93422.91
2018-04-23T12:00:30.157Z,93411.08
2018-04-23T12:02:56.621Z,93414.75
2018-04-23T12:05:23.035Z,93417.72
2018-04-23T12:07:49.591Z,93414.77
2018-04-23T12:10:16.086Z,93411.81
2018-04-23T12:12:42.576Z,93415.48
2018-04-23T12:15:08.974Z,93403.09
2018-04-23T12:17:35.469Z,93412.33
2018-04-23T12:20:01.997Z,93402.18
2018-04-23T12:22:28.397Z,93396.86
2018-04-23T12:24:54.744Z,93399.13
2018-04-23T12:27:21.297Z,93399.20
2018-04-23T12:29:47.726Z,93394.80
2018-04-23T12:32:14.138Z,93393.17
2018-04-23T12:34:40.563Z,93392.50
2018-04-23T12:37:07.088Z,93390.06
2018-04-23T12:39:33.463Z,93388.11
2018-04-23T12:41:59.883Z,93393.20
2018-04-23T12:44:26.441Z,93384.17
2018-04-23T12:46:52.942Z,93383.84
2018-04-23T12:49:19.420Z,93384.17
2018-04-23T12:51:45.925Z,93381.45
2018-04-23T12:54:12.442Z,93374.98
2018-04-23T12:56:40.002Z,93381.86
2018-04-23T12:59:06.562Z,93375.03
2018-04-23T13:01:33.091Z,93371.02
2018-04-23T13:03:59.603Z,93370.20
2018-04-23T13:06:26.229Z,93369.06
2018-04-23T13:08:52.823Z,93365.98
2018-04-23T13:11:19.201Z,93365.92
2018-04-23T13:13:45.644Z,93363.61
2018-04-23T13:16:12.134Z,93360.51
2018-04-23T13:18:38.503Z,93359.33
2018-04-23T13:21:04.920Z,93357.39
2018-04-23T13:23:31.289Z,93355.68
2018-04-23T13:25:57.742Z,93354.88
2018-04-23T13:28:24.244Z,93348.69
2018-04-23T13:30:50.625Z,93346.95
2018-04-23T13:33:17.111Z,93347.89
2018-04-23T13:35:43.527Z,93344.27
2018-04-23T13:38:10.006Z,93339.14
2018-04-23T13:40:37.569Z,93335.80
2018-04-23T13:43:06.152Z,93334.55
2018-04-23T13:45:33.007Z,93334.78
2018-04-23T13:47:59.620Z,93335.44
2018-04-23T13:50:26.078Z,93339.98
2018-04-23T13:52:52.665Z,93333.92
2018-04-23T13:55:19.066Z,93330.47
2018-04-23T13:57:46.659Z,93324.45
2018-04-23T14:00:14.131Z,93325.66
2018-04-23T14:02:42.199Z,93323.91
2018-04-23T14:05:09.081Z,93327.53
2018-04-23T14:07:37.523Z,93320.05
2018-04-23T14:10:03.940Z,93320.00
2018-04-23T14:12:30.419Z,93320.03
2018-04-23T14:14:56.823Z,93324.70
2018-04-23T14:17:23.351Z,93321.44
2018-04-23T14:19:49.763Z,93319.02
2018-04-23T14:22:16.247Z,93313.66
2018-04-23T14:24:42.892Z,93316.69
2018-04-23T14:27:09.498Z,93307.34
2018-04-23T14:29:36.021Z,93306.35
2018-04-23T14:32:02.701Z,93308.99
2018-04-23T14:34:29.248Z,93307.84
2018-04-23T14:36:55.730Z,93303.63
2018-04-23T14:39:22.181Z,93304.36
2018-04-23T14:41:48.792Z,93300.78
2018-04-23T14:44:15.249Z,93294.14
2018-04-23T14:46:41.783Z,93301.72
2018-04-23T14:49:08.296Z,93298.16
2018-04-23T14:51:34.688Z,93300.83
2018-04-23T14:54:01.136Z,93302.90
2018-04-23T14:56:27.493Z,93303.24
2018-04-23T14:58:53.865Z,93298.73
2018-04-23T15:01:20.344Z,93300.51
2018-04-23T15:03:46.750Z,93298.07
2018-04-23T15:06:13.272Z,93300.53
2018-04-23T15:08:39.869Z,93295.77
2018-04-23T15:11:06.414Z,93296.36
2018-04-23T15:13:32.965Z,93296.36
2018-04-23T15:15:59.570Z,93299.08
2018-04-23T15:18:26.044Z,93296.34
2018-04-23T15:20:52.527Z,93296.20
2018-04-23T15:23:19.030Z,93292.92
2018-04-23T15:25:45.675Z,93292.07
2018-04-23T15:28:12.090Z,93294.19
2018-04-23T15:30:38.633Z,93297.81
2018-04-23T15:33:05.361Z,93293.23
2018-04-23T15:35:31.865Z,93293.56
2018-04-23T15:37:58.389Z,93296.50
2018-04-23T15:40:24.760Z,93295.20
2018-04-23T15:42:51.109Z,93290.70
2018-04-23T15:45:17.640Z,93292.08
2018-04-23T15:47:45.162Z,93297.64
2018-04-23T15:50:11.869Z,93293.29
2018-04-23T15:52:38.300Z,93296.38
2018-04-23T15:55:04.795Z,93293.20
2018-04-23T15:57:31.261Z,93291.11
2018-04-23T15:59:58.015Z,93292.61
2018-04-23T16:02:24.376Z,93291.28
2018-04-23T16:04:50.858Z,93297.88
2018-04-23T16:07:17.351Z,93293.91
2018-04-23T16:09:43.726Z,93300.59
2018-04-23T16:12:10.109Z,93298.43
2018-04-23T16:14:36.515Z,93293.83
2018-04-23T16:17:02.978Z,93299.08
2018-04-23T16:19:29.421Z,93298.75
2018-04-23T16:21:55.862Z,93294.97
2018-04-23T16:24:22.360Z,93301.27
2018-04-23T16:26:48.769Z,93301.36
2018-04-23T16:29:15.241Z,93299.89
2018-04-23T16:31:41.615Z,93295.88
2018-04-23T16:34:07.969Z,93304.98
2018-04-23T16:36:34.467Z,93297.12
2018-04-23T16:39:00.949Z,93304.70
2018-04-23T16:41:27.301Z,93307.63
2018-04-23T16:43:53.774Z,93308.48
2018-04-23T16:46:20.157Z,93312.88
2018-04-23T16:48:46.621Z,93308.70
2018-04-23T16:51:13.013Z,93310.36
2018-04-23T16:53:39.435Z,93309.25
2018-04-23T16:56:05.913Z,93311.33
2018-04-23T16:58:32.604Z,93310.96
2018-04-23T17:00:58.998Z,93318.07
2018-04-23T17:03:25.401Z,93318.33
2018-04-23T17:05:51.925Z,93318.97
2018-04-23T17:08:18.776Z,93326.95
2018-04-23T17:10:45.176Z,93330.58
2018-04-23T17:13:11.703Z,93329.59
2018-04-23T17:15:38.079Z,93332.50
2018-04-23T17:18:05.101Z,93330.13
2018-04-23T17:20:31.747Z,93337.89
2018-04-23T17:22:58.669Z,93341.25
2018-04-23T17:25:25.535Z,93345.28
2018-04-23T17:27:52.045Z,93353.03
2018-04-23T17:30:18.617Z,93354.52
2018-04-23T17:32:44.986Z,93354.02
2018-04-23T17:35:12.118Z,93358.32
2018-04-23T17:37:39.607Z,93368.95
2018-04-23T17:40:06.780Z,93362.10
2018-04-23T17:42:33.497Z,93368.17
2018-04-23T17:45:00.472Z,93369.52
2018-04-23T17:47:27.031Z,93370.84
2018-04-23T17:49:53.467Z,93377.51
2018-04-23T17:52:20.851Z,93383.11
2018-04-23T17:54:47.303Z,93381.77
2018-04-23T17:57:13.840Z,93387.84
2018-04-23T17:59:40.562Z,93385.28
2018-04-23T18:02:07.089Z,93392.87
2018-04-23T18:04:33.559Z,93398.20
2018-04-23T18:07:00.205Z,93396.85
2018-04-23T18:09:26.808Z,93403.34
2018-04-23T18:11:53.869Z,93403.80
2018-04-23T18:14:21.062Z,93405.50
2018-04-23T18:16:47.599Z,93405.55
2018-04-23T18:19:14.148Z,93408.18
2018-04-23T18:21:40.623Z,93416.92
2018-04-23T18:24:07.086Z,93414.68
2018-04-23T18:26:33.716Z,93414.91
2018-04-23T18:29:00.339Z,93417.58
2018-04-23T18:31:26.762Z,93421.42
2018-04-23T18:33:53.361Z,93424.70
2018-04-23T18:36:19.853Z,93423.87
2018-04-23T18:38:46.625Z,93428.13
2018-04-23T18:41:13.269Z,93433.86
2018-04-23T18:43:39.949Z,93439.56
2018-04-23T18:46:07.462Z,93444.38
2018-04-23T18:48:34.690Z,93445.15
2018-04-23T18:51:01.191Z,93448.50
2018-04-23T18:53:27.814Z,93452.77
2018-04-23T18:55:54.377Z,93451.56
2018-04-23T18:58:21.030Z,93451.19
2018-04-23T19:00:47.663Z,93456.16
2018-04-23T19:03:15.237Z,93463.44
2018-04-23T19:05:41.916Z,93467.60
2018-04-23T19:08:08.522Z,93466.77
2018-04-23T19:10:35.141Z,93470.28
2018-04-23T19:13:01.583Z,93470.34
2018-04-23T19:15:28.191Z,93468.26
2018-04-23T19:17:55.632Z,93470.64
2018-04-23T19:20:22.029Z,93473.02
2018-04-23T19:22:48.533Z,93474.28
2018-04-23T19:25:15.474Z,93475.14
2018-04-23T19:27:41.923Z,93478.01
2018-04-23T19:30:08.617Z,93472.45
2018-04-23T19:32:35.110Z,93478.25
2018-04-23T19:35:01.611Z,93475.63
2018-04-23T19:37:28.066Z,93481.17
2018-04-23T19:39:54.464Z,93483.45
2018-04-23T19:42:20.997Z,93482.79
2018-04-23T19:44:47.918Z,93484.29
2018-04-23T19:47:14.365Z,93483.39
2018-04-23T19:49:40.857Z,93484.07
2018-04-23T19:52:07.306Z,93490.95
2018-04-23T19:54:33.851Z,93487.42
2018-04-23T19:57:00.247Z,93489.12
2018-04-23T19:59:26.686Z,93489.85
2018-04-23T20:01:53.096Z,93492.67
2018-04-23T20:04:19.470Z,93495.62
2018-04-23T20:06:45.958Z,93495.30
2018-04-23T20:09:12.450Z,93499.83
2018-04-23T20:11:38.820Z,93497.70
2018-04-23T20:14:05.458Z,93499.12
2018-04-23T20:16:31.905Z,93501.25
2018-04-23T20:18:58.384Z,93496.98
2018-04-23T20:21:25.102Z,93494.29
2018-04-23T20:23:51.472Z,93492.57
2018-04-23T20:26:17.806Z,93489.84
2018-04-23T20:28:44.424Z,93494.09
2018-04-23T20:31:10.960Z,93491.48
2018-04-23T20:33:37.350Z,93494.05
2018-04-23T20:36:03.719Z,93492.63
2018-04-23T20:38:30.251Z,93492.63
2018-04-23T20:40:56.771Z,93493.08
2018-04-23T20:43:23.182Z,93497.70
2018-04-23T20:45:49.684Z,93495.97
2018-04-23T20:48:16.158Z,93497.94
2018-04-23T20:50:42.624Z,93491.59
2018-04-23T20:53:09.041Z,93498.95
2018-04-23T20:55:35.511Z,93498.28
2018-04-23T20:58:01.994Z,93498.98
2018-04-23T21:00:28.395Z,93502.84
2018-04-23T21:02:54.827Z,93507.05
2018-04-23T21:05:21.232Z,93510.10
2018-04-23T21:07:47.751Z,93501.09
2018-04-23T21:10:14.112Z,93506.67
2018-04-23T21:12:40.493Z,93510.05
2018-04-23T21:15:07.108Z,93513.06
2018-04-23T21:17:33.536Z,93508.00
2018-04-23T21:19:59.855Z,93508.83
2018-04-23T21:22:26.259Z,93514.60
2018-04-23T21:24:52.749Z,93507.60
2018-04-23T21:27:19.092Z,93515.23
2018-04-23T21:29:45.572Z,93512.70
2018-04-23T21:32:11.987Z,93512.45
2018-04-23T21:34:38.358Z,93520.14
2018-04-23T21:37:04.836Z,93520.05
2018-04-23T21:39:31.314Z,93525.47
2018-04-23T21:41:57.708Z,93520.19
2018-04-23T21:44:24.096Z,93524.58
2018-04-23T21:46:50.762Z,93518.12
2018-04-23T21:49:17.199Z,93521.97
2018-04-23T21:51:43.640Z,93522.76
2018-04-23T21:54:09.992Z,93520.48
2018-04-23T21:56:36.473Z,93522.97
2018-04-23T21:59:03.076Z,93527.63
2018-04-23T22:01:29.428Z,93529.34
2018-04-23T22:03:55.882Z,93533.36
2018-04-23T22:06:22.412Z,93530.31
2018-04-23T22:08:48.891Z,93532.40
2018-04-23T22:11:15.283Z,93530.10
2018-04-23T22:13:41.878Z,93533.11
2018-04-23T22:16:08.312Z,93533.20
2018-04-23T22:18:34.700Z,93538.84
2018-04-23T22:21:01.070Z,93542.98
2018-04-23T22:23:27.499Z,93535.58
2018-04-23T22:25:53.826Z,93536.20
2018-04-23T22:28:20.246Z,93537.61
2018-04-23T22:30:46.557Z,93539.85
2018-04-23T22:33:12.888Z,93537.43
2018-04-23T22:35:39.285Z,93533.94
2018-04-23T22:38:05.791Z,93531.38
2018-04-23T22:40:32.164Z,93532.33
2018-04-23T22:42:58.628Z,93528.16
2018-04-23T22:45:25.021Z,93526.80
2018-04-23T22:47:51.395Z,93520.55
2018-04-23T22:50:17.849Z,93530.87
2018-04-23T22:52:44.229Z,93524.45
2018-04-23T22:55:10.620Z,93529.92
2018-04-23T22:57:37.090Z,93530.87
2018-04-23T23:00:03.652Z,93528.45
2018-04-23T23:02:30.139Z,93527.36
2018-04-23T23:04:56.547Z,93523.91
2018-04-23T23:07:22.951Z,93520.58
2018-04-23T23:09:49.379Z,93517.66
2018-04-23T23:12:15.876Z,93525.88
2018-04-23T23:14:42.249Z,93525.88
2018-04-23T23:17:08.930Z,93532.41
2018-04-23T23:19:35.359Z,93526.56
2018-04-23T23:22:01.963Z,93528.94
2018-04-23T23:24:28.287Z,93526.50
2018-04-23T23:26:54.777Z,93528.06
2018-04-23T23:29:21.233Z,93516.58
2018-04-23T23:31:47.626Z,93516.86
2018-04-23T23:34:14.055Z,93518.00
2018-04-23T23:36:40.446Z,93522.20
2018-04-23T23:39:06.783Z,93520.77
2018-04-23T23:41:33.266Z,93520.42
2018-04-23T23:43:59.675Z,93521.08
2018-04-23T23:46:26.032Z,93525.09
2018-04-23T23:48:52.459Z,93523.31
2018-04-23T23:51:18.960Z,93525.00
2018-04-23T23:53:45.328Z,93522.92
2018-04-23T23:56:11.665Z,93524.69
2018-04-23T23:58:38.061Z,93524.69
